sensor_id;sensor_type;location;lat;lon;timestamp;pressure;altitude;pressure_sealevel;temperature;humidity
25510;BME280;13413;52.336;21.200;2022-12-24T00:03:16;99498.41;;;9.07;72.08
25510;BME280;13413;52.336;21.200;2022-12-24T00:06:36;99498.39;;;8.99;72.09
25510;BME280;13413;52.336;21.200;2022-12-24T00:09:55;99492.59;;;8.96;72.21
25510;BME280;13413;52.336;21.200;2022-12-24T00:13:14;99492.13;;;9.01;72.30
25510;BME280;13413;52.336;21.200;2022-12-24T00:16:34;99492.71;;;9.10;72.23
25510;BME280;13413;52.336;21.200;2022-12-24T00:19:53;99485.62;;;9.16;72.15
25510;BME280;13413;52.336;21.200;2022-12-24T00:23:15;99481.60;;;9.17;71.96
25510;BME280;13413;52.336;21.200;2022-12-24T00:26:36;99487.55;;;9.18;72.01
25510;BME280;13413;52.336;21.200;2022-12-24T00:29:56;99492.23;;;9.11;71.88
25510;BME280;13413;52.336;21.200;2022-12-24T00:33:29;99489.00;;;8.98;71.80
25510;BME280;13413;52.336;21.200;2022-12-24T00:36:49;99488.95;;;8.91;72.07
25510;BME280;13413;52.336;21.200;2022-12-24T00:40:10;99492.00;;;8.88;72.23
25510;BME280;13413;52.336;21.200;2022-12-24T00:43:29;99487.70;;;8.87;72.22
25510;BME280;13413;52.336;21.200;2022-12-24T00:46:49;99486.17;;;8.92;72.29
25510;BME280;13413;52.336;21.200;2022-12-24T00:50:09;99484.79;;;8.92;72.11
25510;BME280;13413;52.336;21.200;2022-12-24T00:53:29;99487.27;;;8.87;72.27
25510;BME280;13413;52.336;21.200;2022-12-24T00:56:48;99486.90;;;8.89;72.47
25510;BME280;13413;52.336;21.200;2022-12-24T01:00:10;99488.86;;;8.96;72.27
25510;BME280;13413;52.336;21.200;2022-12-24T01:03:29;99485.13;;;8.97;72.21
25510;BME280;13413;52.336;21.200;2022-12-24T01:06:48;99492.61;;;8.97;72.33
25510;BME280;13413;52.336;21.200;2022-12-24T01:10:07;99489.77;;;8.94;72.19
25510;BME280;13413;52.336;21.200;2022-12-24T01:19:34;99479.34;;;9.00;72.28
25510;BME280;13413;52.336;21.200;2022-12-24T01:22:54;99485.83;;;9.02;72.16
25510;BME280;13413;52.336;21.200;2022-12-24T01:26:14;99485.90;;;9.01;72.19
25510;BME280;13413;52.336;21.200;2022-12-24T01:29:34;99483.00;;;9.06;72.25
25510;BME280;13413;52.336;21.200;2022-12-24T01:32:54;99484.70;;;9.10;72.19
25510;BME280;13413;52.336;21.200;2022-12-24T01:36:14;99492.86;;;9.12;71.97
25510;BME280;13413;52.336;21.200;2022-12-24T01:39:33;99500.54;;;9.15;72.07
25510;BME280;13413;52.336;21.200;2022-12-24T01:42:53;99502.36;;;9.13;72.04
25510;BME280;13413;52.336;21.200;2022-12-24T01:46:17;99495.88;;;9.13;71.95
25510;BME280;13413;52.336;21.200;2022-12-24T01:49:41;99488.00;;;9.14;71.94
25510;BME280;13413;52.336;21.200;2022-12-24T01:53:02;99487.73;;;9.16;71.98
25510;BME280;13413;52.336;21.200;2022-12-24T01:56:25;99483.47;;;9.21;72.03
25510;BME280;13413;52.336;21.200;2022-12-24T01:59:48;99487.44;;;9.24;72.00
25510;BME280;13413;52.336;21.200;2022-12-24T02:03:10;99494.40;;;9.26;71.83
25510;BME280;13413;52.336;21.200;2022-12-24T02:10:07;99493.23;;;9.21;71.70
25510;BME280;13413;52.336;21.200;2022-12-24T02:13:29;99494.34;;;9.17;71.69
25510;BME280;13413;52.336;21.200;2022-12-24T02:16:57;99495.27;;;9.14;71.67
25510;BME280;13413;52.336;21.200;2022-12-24T02:20:44;99495.64;;;9.14;71.74
25510;BME280;13413;52.336;21.200;2022-12-24T02:27:55;99494.16;;;9.17;71.77
25510;BME280;13413;52.336;21.200;2022-12-24T02:31:18;99494.52;;;9.14;71.62
25510;BME280;13413;52.336;21.200;2022-12-24T02:34:42;99493.64;;;9.16;71.83
25510;BME280;13413;52.336;21.200;2022-12-24T02:38:10;99500.56;;;9.12;71.69
25510;BME280;13413;52.336;21.200;2022-12-24T02:41:35;99503.20;;;9.11;71.63
25510;BME280;13413;52.336;21.200;2022-12-24T02:44:57;99502.53;;;9.08;71.69
25510;BME280;13413;52.336;21.200;2022-12-24T02:48:22;99502.42;;;9.02;71.81
25510;BME280;13413;52.336;21.200;2022-12-24T02:51:43;99501.50;;;9.02;71.80
25510;BME280;13413;52.336;21.200;2022-12-24T02:55:08;99500.98;;;9.05;71.88
25510;BME280;13413;52.336;21.200;2022-12-24T02:58:37;99502.88;;;9.09;71.80
25510;BME280;13413;52.336;21.200;2022-12-24T03:02:06;99502.24;;;9.10;71.62
25510;BME280;13413;52.336;21.200;2022-12-24T03:05:33;99499.70;;;9.08;71.72
25510;BME280;13413;52.336;21.200;2022-12-24T03:08:59;99500.84;;;9.13;71.71
25510;BME280;13413;52.336;21.200;2022-12-24T03:12:25;99506.65;;;9.15;71.74
25510;BME280;13413;52.336;21.200;2022-12-24T03:15:46;99512.33;;;9.16;71.63
25510;BME280;13413;52.336;21.200;2022-12-24T03:19:06;99509.63;;;9.15;71.72
25510;BME280;13413;52.336;21.200;2022-12-24T03:22:25;99511.42;;;9.16;71.66
25510;BME280;13413;52.336;21.200;2022-12-24T03:25:45;99511.96;;;9.17;71.65
25510;BME280;13413;52.336;21.200;2022-12-24T03:29:23;99515.50;;;9.16;71.55
25510;BME280;13413;52.336;21.200;2022-12-24T03:32:41;99520.90;;;9.12;71.63
25510;BME280;13413;52.336;21.200;2022-12-24T03:40:03;99515.75;;;9.09;71.59
25510;BME280;13413;52.336;21.200;2022-12-24T03:43:23;99512.10;;;9.08;71.86
25510;BME280;13413;52.336;21.200;2022-12-24T03:46:42;99507.98;;;9.04;71.67
25510;BME280;13413;52.336;21.200;2022-12-24T03:50:01;99507.59;;;9.01;71.72
25510;BME280;13413;52.336;21.200;2022-12-24T03:53:20;99505.92;;;8.97;71.70
25510;BME280;13413;52.336;21.200;2022-12-24T03:56:40;99511.54;;;8.98;71.75
25510;BME280;13413;52.336;21.200;2022-12-24T04:00:00;99514.08;;;8.99;71.77
25510;BME280;13413;52.336;21.200;2022-12-24T04:03:19;99523.97;;;8.99;71.65
25510;BME280;13413;52.336;21.200;2022-12-24T04:06:39;99524.14;;;8.97;71.79
25510;BME280;13413;52.336;21.200;2022-12-24T04:10:00;99523.92;;;8.96;71.74
25510;BME280;13413;52.336;21.200;2022-12-24T04:13:20;99522.02;;;8.93;71.69
25510;BME280;13413;52.336;21.200;2022-12-24T04:16:38;99526.55;;;8.95;71.75
25510;BME280;13413;52.336;21.200;2022-12-24T04:20:00;99520.47;;;8.92;71.77
25510;BME280;13413;52.336;21.200;2022-12-24T04:23:20;99515.77;;;8.91;71.80
25510;BME280;13413;52.336;21.200;2022-12-24T04:26:41;99514.60;;;8.92;71.79
25510;BME280;13413;52.336;21.200;2022-12-24T04:30:01;99514.02;;;8.91;71.83
25510;BME280;13413;52.336;21.200;2022-12-24T04:33:21;99510.86;;;8.89;71.66
25510;BME280;13413;52.336;21.200;2022-12-24T04:36:41;99510.34;;;8.83;71.86
25510;BME280;13413;52.336;21.200;2022-12-24T04:40:00;99509.15;;;8.81;71.80
25510;BME280;13413;52.336;21.200;2022-12-24T04:43:21;99508.88;;;8.83;71.88
25510;BME280;13413;52.336;21.200;2022-12-24T04:46:40;99505.83;;;8.78;71.78
25510;BME280;13413;52.336;21.200;2022-12-24T04:53:20;99515.86;;;8.79;72.03
25510;BME280;13413;52.336;21.200;2022-12-24T04:56:40;99518.37;;;8.81;71.86
25510;BME280;13413;52.336;21.200;2022-12-24T05:00:01;99524.90;;;8.82;71.71
25510;BME280;13413;52.336;21.200;2022-12-24T05:03:20;99532.38;;;8.78;71.69
25510;BME280;13413;52.336;21.200;2022-12-24T05:06:40;99534.55;;;8.74;
25510;BME280;13413;52.336;21.200;2022-12-24T05:10:01;99535.23;;;8.70;71.74
25510;BME280;13413;52.336;21.200;2022-12-24T05:13:21;99535.80;;;8.69;71.78
25510;BME280;13413;52.336;21.200;2022-12-24T05:16:39;99535.63;;;8.72;71.79
25510;BME280;13413;52.336;21.200;2022-12-24T05:19:59;99534.52;;;8.74;71.85
25510;BME280;13413;52.336;21.200;2022-12-24T05:23:20;99533.30;;;8.74;71.67
25510;BME280;13413;52.336;21.200;2022-12-24T05:26:42;99532.10;;;8.78;71.84
25510;BME280;13413;52.336;21.200;2022-12-24T05:30:05;99527.14;;;8.80;71.79
25510;BME280;13413;52.336;21.200;2022-12-24T05:33:26;99526.55;;;8.77;71.74
25510;BME280;13413;52.336;21.200;2022-12-24T05:36:46;99531.75;;;8.74;71.68
25510;BME280;13413;52.336;21.200;2022-12-24T05:40:07;99531.73;;;8.75;71.70
25510;BME280;13413;52.336;21.200;2022-12-24T05:43:26;99534.98;;;8.76;71.57
25510;BME280;13413;52.336;21.200;2022-12-24T05:46:45;99537.67;;;8.70;71.51
25510;BME280;13413;52.336;21.200;2022-12-24T05:50:05;99541.93;;;8.67;71.66
25510;BME280;13413;52.336;21.200;2022-12-24T05:59:29;99551.61;;;8.69;71.59
25510;BME280;13413;52.336;21.200;2022-12-24T06:02:49;99554.29;;;8.64;71.61
25510;BME280;13413;52.336;21.200;2022-12-24T06:06:11;99555.75;;;8.63;71.61
25510;BME280;13413;52.336;21.200;2022-12-24T06:09:31;99559.69;;;8.63;71.66
25510;BME280;13413;52.336;21.200;2022-12-24T06:16:30;99555.52;;;8.63;71.64
25510;BME280;13413;52.336;21.200;2022-12-24T06:19:49;99559.24;;;8.65;71.63
25510;BME280;13413;52.336;21.200;2022-12-24T06:23:09;99563.73;;;8.63;71.46
25510;BME280;13413;52.336;21.200;2022-12-24T06:26:30;99560.18;;;8.60;71.50
25510;BME280;13413;52.336;21.200;2022-12-24T06:29:50;99567.54;;;8.56;71.50
25510;BME280;13413;52.336;21.200;2022-12-24T06:33:09;99573.39;;;8.53;71.44
25510;BME280;13413;52.336;21.200;2022-12-24T06:36:30;99570.71;;;8.52;71.55
25510;BME280;13413;52.336;21.200;2022-12-24T06:39:49;99573.23;;;8.53;71.48
25510;BME280;13413;52.336;21.200;2022-12-24T06:43:09;99573.74;;;8.50;71.44
25510;BME280;13413;52.336;21.200;2022-12-24T06:46:29;99575.95;;;8.48;71.47
25510;BME280;13413;52.336;21.200;2022-12-24T06:49:49;99577.40;;;8.47;71.70
25510;BME280;13413;52.336;21.200;2022-12-24T06:53:09;99581.68;;;8.48;71.58
25510;BME280;13413;52.336;21.200;2022-12-24T06:56:30;99581.88;;;8.47;71.55
25510;BME280;13413;52.336;21.200;2022-12-24T06:59:49;99590.02;;;8.45;71.66
25510;BME280;13413;52.336;21.200;2022-12-24T07:03:08;99590.62;;;8.47;71.66
25510;BME280;13413;52.336;21.200;2022-12-24T07:06:29;99596.02;;;8.47;71.45
25510;BME280;13413;52.336;21.200;2022-12-24T07:09:48;99602.52;;;8.45;71.61
25510;BME280;13413;52.336;21.200;2022-12-24T07:13:09;99606.99;;;8.49;71.63
25510;BME280;13413;52.336;21.200;2022-12-24T07:16:48;99618.52;;;8.50;71.58
25510;BME280;13413;52.336;21.200;2022-12-24T07:20:11;99619.34;;;8.51;71.56
25510;BME280;13413;52.336;21.200;2022-12-24T07:23:29;99623.11;;;8.50;71.50
25510;BME280;13413;52.336;21.200;2022-12-24T07:26:49;99622.48;;;8.50;71.59
25510;BME280;13413;52.336;21.200;2022-12-24T07:30:09;99628.80;;;8.51;71.61
25510;BME280;13413;52.336;21.200;2022-12-24T07:33:28;99625.30;;;8.49;71.66
25510;BME280;13413;52.336;21.200;2022-12-24T07:36:48;99626.93;;;8.50;71.62
25510;BME280;13413;52.336;21.200;2022-12-24T07:40:10;99635.33;;;8.49;71.59
25510;BME280;13413;52.336;21.200;2022-12-24T07:43:31;99637.59;;;8.45;71.58
25510;BME280;13413;52.336;21.200;2022-12-24T07:46:52;99641.06;;;8.45;71.57
25510;BME280;13413;52.336;21.200;2022-12-24T07:50:12;99640.33;;;8.46;71.52
25510;BME280;13413;52.336;21.200;2022-12-24T07:53:31;99645.96;;;8.43;71.63
25510;BME280;13413;52.336;21.200;2022-12-24T07:56:51;99648.23;;;8.41;71.49
25510;BME280;13413;52.336;21.200;2022-12-24T08:00:13;99646.85;;;8.36;71.56
25510;BME280;13413;52.336;21.200;2022-12-24T08:03:33;99650.94;;;8.41;71.58
25510;BME280;13413;52.336;21.200;2022-12-24T08:06:52;99656.59;;;8.41;71.48
25510;BME280;13413;52.336;21.200;2022-12-24T08:10:13;99659.80;;;8.40;71.66
25510;BME280;13413;52.336;21.200;2022-12-24T08:19:30;99658.19;;;8.42;71.65
25510;BME280;13413;52.336;21.200;2022-12-24T08:22:49;99662.05;;;8.42;71.70
25510;BME280;13413;52.336;21.200;2022-12-24T08:26:11;99664.02;;;8.43;71.68
25510;BME280;13413;52.336;21.200;2022-12-24T08:29:31;99669.21;;;8.44;71.75
25510;BME280;13413;52.336;21.200;2022-12-24T08:32:50;99669.54;;;8.47;71.79
25510;BME280;13413;52.336;21.200;2022-12-24T08:36:10;99670.67;;;8.50;71.77
25510;BME280;13413;52.336;21.200;2022-12-24T08:39:29;99678.86;;;8.50;71.65
25510;BME280;13413;52.336;21.200;2022-12-24T08:42:50;99684.56;;;8.50;71.73
25510;BME280;13413;52.336;21.200;2022-12-24T08:46:10;99687.57;;;8.48;71.65
25510;BME280;13413;52.336;21.200;2022-12-24T08:49:30;99687.52;;;8.50;71.68
25510;BME280;13413;52.336;21.200;2022-12-24T08:52:49;99692.59;;;8.55;71.92
25510;BME280;13413;52.336;21.200;2022-12-24T08:56:13;99694.50;;;8.58;71.75
25510;BME280;13413;52.336;21.200;2022-12-24T08:59:33;99706.77;;;8.59;71.63
25510;BME280;13413;52.336;21.200;2022-12-24T09:02:53;99713.84;;;8.60;71.57
25510;BME280;13413;52.336;21.200;2022-12-24T09:06:13;99710.58;;;8.58;71.52
25510;BME280;13413;52.336;21.200;2022-12-24T09:09:34;99714.95;;;8.61;71.54
25510;BME280;13413;52.336;21.200;2022-12-24T09:12:53;99716.88;;;8.62;71.64
25510;BME280;13413;52.336;21.200;2022-12-24T09:16:13;99714.33;;;8.60;71.59
25510;BME280;13413;52.336;21.200;2022-12-24T09:19:33;99716.70;;;8.61;71.82
25510;BME280;13413;52.336;21.200;2022-12-24T09:22:53;99715.14;;;8.65;71.75
25510;BME280;13413;52.336;21.200;2022-12-24T09:26:16;99721.99;;;8.67;71.72
25510;BME280;13413;52.336;21.200;2022-12-24T09:29:36;99718.84;;;8.66;71.47
25510;BME280;13413;52.336;21.200;2022-12-24T09:32:55;99720.67;;;8.63;71.54
25510;BME280;13413;52.336;21.200;2022-12-24T09:36:15;99723.14;;;8.63;71.48
25510;BME280;13413;52.336;21.200;2022-12-24T09:39:35;99728.60;;;8.65;71.58
25510;BME280;13413;52.336;21.200;2022-12-24T09:42:55;99733.88;;;8.68;71.62
25510;BME280;13413;52.336;21.200;2022-12-24T09:46:22;99737.52;;;8.68;71.59
25510;BME280;13413;52.336;21.200;2022-12-24T09:49:46;99740.41;;;8.66;71.62
25510;BME280;13413;52.336;21.200;2022-12-24T09:53:16;99742.17;;;8.69;71.55
25510;BME280;13413;52.336;21.200;2022-12-24T09:56:39;99744.23;;;8.71;71.51
25510;BME280;13413;52.336;21.200;2022-12-24T10:00:00;99748.02;;;8.72;71.59
25510;BME280;13413;52.336;21.200;2022-12-24T10:03:21;99748.11;;;8.74;71.59
25510;BME280;13413;52.336;21.200;2022-12-24T10:06:49;99749.02;;;8.70;71.50
25510;BME280;13413;52.336;21.200;2022-12-24T10:10:19;99755.94;;;8.71;71.56
25510;BME280;13413;52.336;21.200;2022-12-24T10:13:53;99763.34;;;8.73;71.47
25510;BME280;13413;52.336;21.200;2022-12-24T10:17:33;99766.16;;;8.78;71.54
25510;BME280;13413;52.336;21.200;2022-12-24T10:24:35;99768.11;;;8.78;71.48
25510;BME280;13413;52.336;21.200;2022-12-24T10:27:59;99772.27;;;8.80;71.35
25510;BME280;13413;52.336;21.200;2022-12-24T10:41:08;99782.77;;;8.92;71.49
25510;BME280;13413;52.336;21.200;2022-12-24T10:44:31;99791.34;;;8.91;71.36
25510;BME280;13413;52.336;21.200;2022-12-24T10:47:56;99793.27;;;8.86;71.36
25510;BME280;13413;52.336;21.200;2022-12-24T10:51:23;99795.77;;;8.89;71.41
25510;BME280;13413;52.336;21.200;2022-12-24T10:55:06;99802.16;;;8.90;71.41
25510;BME280;13413;52.336;21.200;2022-12-24T10:58:26;99803.16;;;8.92;71.29
25510;BME280;13413;52.336;21.200;2022-12-24T11:01:46;99804.88;;;8.89;71.16
25510;BME280;13413;52.336;21.200;2022-12-24T11:05:28;99809.74;;;8.87;71.22
25510;BME280;13413;52.336;21.200;2022-12-24T11:08:48;99809.99;;;8.80;71.18
25510;BME280;13413;52.336;21.200;2022-12-24T11:12:17;99815.63;;;8.79;71.19
25510;BME280;13413;52.336;21.200;2022-12-24T11:15:38;99820.27;;;8.80;71.34
25510;BME280;13413;52.336;21.200;2022-12-24T11:18:59;99817.83;;;8.79;71.25
25510;BME280;13413;52.336;21.200;2022-12-24T11:22:23;99816.81;;;8.79;71.32
25510;BME280;13413;52.336;21.200;2022-12-24T11:25:48;99820.96;;;8.79;71.27
25510;BME280;13413;52.336;21.200;2022-12-24T11:29:18;99819.84;;;8.82;71.35
25510;BME280;13413;52.336;21.200;2022-12-24T11:32:37;99821.32;;;8.83;71.33
25510;BME280;13413;52.336;21.200;2022-12-24T11:36:05;99829.88;;;8.82;71.32
25510;BME280;13413;52.336;21.200;2022-12-24T11:39:30;99832.08;;;8.80;71.40
25510;BME280;13413;52.336;21.200;2022-12-24T11:43:02;99832.52;;;8.84;71.37
25510;BME280;13413;52.336;21.200;2022-12-24T11:46:36;99836.04;;;8.88;71.36
25510;BME280;13413;52.336;21.200;2022-12-24T11:50:21;99840.92;;;8.87;71.32
25510;BME280;13413;52.336;21.200;2022-12-24T11:53:45;99845.15;;;8.87;71.39
25510;BME280;13413;52.336;21.200;2022-12-24T11:57:09;99849.94;;;8.92;71.51
25510;BME280;13413;52.336;21.200;2022-12-24T12:00:29;99852.11;;;8.94;71.36
25510;BME280;13413;52.336;21.200;2022-12-24T12:03:52;99857.81;;;9.00;71.13
25510;BME280;13413;52.336;21.200;2022-12-24T12:07:15;99862.34;;;8.96;71.12
25510;BME280;13413;52.336;21.200;2022-12-24T12:10:38;99869.15;;;8.92;71.11
25510;BME280;13413;52.336;21.200;2022-12-24T12:14:00;99871.98;;;8.93;71.21
25510;BME280;13413;52.336;21.200;2022-12-24T12:17:30;99872.83;;;8.95;71.03
25510;BME280;13413;52.336;21.200;2022-12-24T12:20:55;99877.41;;;8.93;71.09
25510;BME280;13413;52.336;21.200;2022-12-24T12:24:38;99882.98;;;8.96;71.11
25510;BME280;13413;52.336;21.200;2022-12-24T12:28:10;99887.20;;;9.00;71.17
25510;BME280;13413;52.336;21.200;2022-12-24T12:31:35;99886.20;;;9.01;71.06
25510;BME280;13413;52.336;21.200;2022-12-24T12:35:00;99892.59;;;8.99;70.96
25510;BME280;13413;52.336;21.200;2022-12-24T12:38:25;99900.00;;;9.01;71.10
25510;BME280;13413;52.336;21.200;2022-12-24T12:41:52;99909.92;;;8.99;70.96
25510;BME280;13413;52.336;21.200;2022-12-24T12:45:37;99921.91;;;8.97;70.95
25510;BME280;13413;52.336;21.200;2022-12-24T12:49:10;99928.98;;;8.97;70.85
25510;BME280;13413;52.336;21.200;2022-12-24T12:52:36;99940.45;;;8.94;70.70
25510;BME280;13413;52.336;21.200;2022-12-24T13:00:24;99948.90;;;8.99;70.84
25510;BME280;13413;52.336;21.200;2022-12-24T13:04:13;99952.02;;;8.99;70.65
25510;BME280;13413;52.336;21.200;2022-12-24T13:07:49;99958.09;;;8.96;70.59
25510;BME280;13413;52.336;21.200;2022-12-24T13:11:27;99968.61;;;8.95;70.75
25510;BME280;13413;52.336;21.200;2022-12-24T13:15:05;99973.52;;;8.98;70.83
25510;BME280;13413;52.336;21.200;2022-12-24T13:18:40;99974.52;;;9.01;70.95
25510;BME280;13413;52.336;21.200;2022-12-24T13:22:03;99976.51;;;9.03;70.72
25510;BME280;13413;52.336;21.200;2022-12-24T13:25:25;99984.55;;;9.04;70.65
25510;BME280;13413;52.336;21.200;2022-12-24T13:28:46;99990.27;;;9.05;70.46
25510;BME280;13413;52.336;21.200;2022-12-24T13:36:02;100000.74;;;9.02;70.50
25510;BME280;13413;52.336;21.200;2022-12-24T13:39:22;100007.80;;;8.97;70.35
25510;BME280;13413;52.336;21.200;2022-12-24T13:43:07;100017.61;;;8.89;70.24
25510;BME280;13413;52.336;21.200;2022-12-24T13:46:50;100019.59;;;8.77;70.26
25510;BME280;13413;52.336;21.200;2022-12-24T13:50:22;100022.01;;;8.67;70.16
25510;BME280;13413;52.336;21.200;2022-12-24T13:53:46;100027.53;;;8.57;70.25
25510;BME280;13413;52.336;21.200;2022-12-24T13:57:28;100034.61;;;8.54;70.37
25510;BME280;13413;52.336;21.200;2022-12-24T14:00:55;100037.85;;;8.52;70.39
25510;BME280;13413;52.336;21.200;2022-12-24T14:04:21;100052.73;;;8.49;70.37
25510;BME280;13413;52.336;21.200;2022-12-24T14:07:47;100057.14;;;8.45;70.26
25510;BME280;13413;52.336;21.200;2022-12-24T14:11:10;100065.30;;;8.37;70.35
25510;BME280;13413;52.336;21.200;2022-12-24T14:14:33;100070.61;;;8.32;70.39
25510;BME280;13413;52.336;21.200;2022-12-24T14:17:53;100076.70;;;8.29;70.46
25510;BME280;13413;52.336;21.200;2022-12-24T14:21:19;100077.95;;;8.26;70.35
25510;BME280;13413;52.336;21.200;2022-12-24T14:24:43;100081.05;;;8.22;70.45
25510;BME280;13413;52.336;21.200;2022-12-24T14:28:10;100095.76;;;8.20;70.36
25510;BME280;13413;52.336;21.200;2022-12-24T14:31:34;100105.80;;;8.20;70.45
25510;BME280;13413;52.336;21.200;2022-12-24T14:35:12;100118.98;;;8.20;70.28
25510;BME280;13413;52.336;21.200;2022-12-24T14:38:34;100123.30;;;8.21;70.32
25510;BME280;13413;52.336;21.200;2022-12-24T14:42:03;100132.71;;;8.20;70.32
25510;BME280;13413;52.336;21.200;2022-12-24T14:45:30;100138.12;;;8.14;70.20
25510;BME280;13413;52.336;21.200;2022-12-24T14:48:56;100144.57;;;8.08;70.29
25510;BME280;13413;52.336;21.200;2022-12-24T14:52:26;100149.38;;;8.05;70.32
25510;BME280;13413;52.336;21.200;2022-12-24T14:56:09;100149.75;;;8.05;70.69
25510;BME280;13413;52.336;21.200;2022-12-24T14:59:31;100159.05;;;8.06;70.52
25510;BME280;13413;52.336;21.200;2022-12-24T15:02:59;100161.29;;;8.05;70.50
25510;BME280;13413;52.336;21.200;2022-12-24T15:06:17;100166.05;;;8.05;70.49
25510;BME280;13413;52.336;21.200;2022-12-24T15:09:38;100168.09;;;8.03;70.49
25510;BME280;13413;52.336;21.200;2022-12-24T15:12:56;100171.44;;;8.03;70.46
25510;BME280;13413;52.336;21.200;2022-12-24T15:22:24;100184.21;;;8.03;70.54
25510;BME280;13413;52.336;21.200;2022-12-24T15:25:43;100190.17;;;7.99;70.44
25510;BME280;13413;52.336;21.200;2022-12-24T15:29:18;100191.78;;;7.98;70.56
25510;BME280;13413;52.336;21.200;2022-12-24T15:32:39;100201.01;;;8.01;70.54
25510;BME280;13413;52.336;21.200;2022-12-24T15:36:11;100202.10;;;8.04;70.44
25510;BME280;13413;52.336;21.200;2022-12-24T15:39:32;100204.88;;;7.99;70.48
25510;BME280;13413;52.336;21.200;2022-12-24T15:42:53;100207.79;;;8.00;70.38
25510;BME280;13413;52.336;21.200;2022-12-24T15:46:20;100209.52;;;7.97;70.32
25510;BME280;13413;52.336;21.200;2022-12-24T15:49:42;100209.85;;;7.94;70.43
25510;BME280;13413;52.336;21.200;2022-12-24T15:53:04;100214.07;;;7.92;70.38
25510;BME280;13413;52.336;21.200;2022-12-24T15:56:36;100220.67;;;7.91;70.35
25510;BME280;13413;52.336;21.200;2022-12-24T16:03:20;100226.47;;;7.83;70.39
25510;BME280;13413;52.336;21.200;2022-12-24T16:06:55;100225.58;;;7.78;70.30
25510;BME280;13413;52.336;21.200;2022-12-24T16:10:25;100226.35;;;7.73;70.16
25510;BME280;13413;52.336;21.200;2022-12-24T16:14:00;100231.94;;;7.75;70.41
25510;BME280;13413;52.336;21.200;2022-12-24T16:17:23;100237.41;;;7.80;70.39
25510;BME280;13413;52.336;21.200;2022-12-24T16:20:49;100239.16;;;7.82;70.36
25510;BME280;13413;52.336;21.200;2022-12-24T16:24:16;100239.29;;;7.82;70.35
25510;BME280;13413;52.336;21.200;2022-12-24T16:27:37;100239.91;;;7.78;70.16
25510;BME280;13413;52.336;21.200;2022-12-24T16:30:56;100247.85;;;7.73;70.11
25510;BME280;13413;52.336;21.200;2022-12-24T16:34:17;100254.90;;;7.71;70.26
25510;BME280;13413;52.336;21.200;2022-12-24T16:37:36;100257.85;;;7.68;70.23
25510;BME280;13413;52.336;21.200;2022-12-24T16:40:55;100263.03;;;7.66;70.17
25510;BME280;13413;52.336;21.200;2022-12-24T16:44:14;100270.39;;;7.61;70.22
25510;BME280;13413;52.336;21.200;2022-12-24T16:47:34;100275.77;;;7.63;70.27
25510;BME280;13413;52.336;21.200;2022-12-24T16:50:54;100276.91;;;7.64;70.17
25510;BME280;13413;52.336;21.200;2022-12-24T16:54:14;100273.33;;;7.60;70.10
25510;BME280;13413;52.336;21.200;2022-12-24T16:57:35;100269.32;;;7.64;70.10
25510;BME280;13413;52.336;21.200;2022-12-24T17:00:57;100267.30;;;7.62;69.86
25510;BME280;13413;52.336;21.200;2022-12-24T17:04:18;100275.52;;;7.59;69.94
25510;BME280;13413;52.336;21.200;2022-12-24T17:07:38;100279.11;;;7.60;69.98
25510;BME280;13413;52.336;21.200;2022-12-24T17:10:58;100283.61;;;7.62;70.05
25510;BME280;13413;52.336;21.200;2022-12-24T17:14:18;100292.84;;;7.63;69.98
25510;BME280;13413;52.336;21.200;2022-12-24T17:17:39;100304.25;;;7.62;69.93
25510;BME280;13413;52.336;21.200;2022-12-24T17:21:00;100313.58;;;7.59;70.13
25510;BME280;13413;52.336;21.200;2022-12-24T17:24:20;100312.46;;;7.59;70.10
25510;BME280;13413;52.336;21.200;2022-12-24T17:27:39;100313.70;;;7.62;70.09
25510;BME280;13413;52.336;21.200;2022-12-24T17:30:59;100311.67;;;7.61;70.03
25510;BME280;13413;52.336;21.200;2022-12-24T17:34:19;100318.04;;;7.59;69.92
25510;BME280;13413;52.336;21.200;2022-12-24T17:37:38;100322.05;;;7.56;69.95
25510;BME280;13413;52.336;21.200;2022-12-24T17:41:02;100322.69;;;7.57;70.12
25510;BME280;13413;52.336;21.200;2022-12-24T17:44:22;100329.35;;;7.61;69.94
25510;BME280;13413;52.336;21.200;2022-12-24T17:47:40;100330.60;;;7.57;69.82
25510;BME280;13413;52.336;21.200;2022-12-24T17:55:43;100343.27;;;7.55;69.95
25510;BME280;13413;52.336;21.200;2022-12-24T17:59:04;100348.94;;;7.52;69.97
25510;BME280;13413;52.336;21.200;2022-12-24T18:02:23;100353.21;;;7.55;70.14
25510;BME280;13413;52.336;21.200;2022-12-24T18:05:43;100351.90;;;7.57;70.03
25510;BME280;13413;52.336;21.200;2022-12-24T18:09:03;100354.21;;;7.57;69.88
25510;BME280;13413;52.336;21.200;2022-12-24T18:12:23;100357.96;;;7.55;70.03
25510;BME280;13413;52.336;21.200;2022-12-24T18:15:43;100355.38;;;7.54;70.02
25510;BME280;13413;52.336;21.200;2022-12-24T18:19:05;100361.47;;;7.55;70.20
25510;BME280;13413;52.336;21.200;2022-12-24T18:22:26;100372.79;;;7.56;70.08
25510;BME280;13413;52.336;21.200;2022-12-24T18:25:46;100380.25;;;7.53;70.04
25510;BME280;13413;52.336;21.200;2022-12-24T18:29:05;100380.20;;;7.51;69.88
25510;BME280;13413;52.336;21.200;2022-12-24T18:32:25;100382.27;;;7.51;70.04
25510;BME280;13413;52.336;21.200;2022-12-24T18:35:45;100384.50;;;7.51;69.95
25510;BME280;13413;52.336;21.200;2022-12-24T18:39:05;100390.33;;;7.50;69.96
25510;BME280;13413;52.336;21.200;2022-12-24T18:42:40;100398.10;;;7.48;69.85
25510;BME280;13413;52.336;21.200;2022-12-24T18:46:04;100398.61;;;7.46;69.94
25510;BME280;13413;52.336;21.200;2022-12-24T18:49:23;100396.21;;;7.43;69.95
25510;BME280;13413;52.336;21.200;2022-12-24T18:52:42;100399.42;;;7.43;69.96
25510;BME280;13413;52.336;21.200;2022-12-24T18:56:05;100406.08;;;7.43;70.01
25510;BME280;13413;52.336;21.200;2022-12-24T18:59:25;100407.56;;;7.42;69.80
25510;BME280;13413;52.336;21.200;2022-12-24T19:02:44;100408.59;;;7.39;69.88
25510;BME280;13413;52.336;21.200;2022-12-24T19:06:05;100414.15;;;7.35;69.86